Yellowstone National Park, WY (82190)

08:05 PM MDT die 23o July, anno 2014 (GMT -0600)
Yellowstone (KWYS) Elev 6644 ft | 44.69 °N, 111.12 °W | Change Station

Current weather conditions updated 15 minutes ago

Partialiter Nubila
Partialiter Nubila
79 °F
Feels Like 79 °F
N
9
Ventus Variabilis Ventus from Auster

Tomorrow is forecast to be Much Cooler than today.

Hodie
High -- | Low -- °F
--% Chance of Precip.
Yesterday
High -- | Low -- °F
Precip. -- in
5:57 AM 8:58 PM
Waning Crescent, 7% visible
Pressio 30.18 in
Visibilitas 10.0 milia passuum
Clouds Serena
Frigus in quo Ros apparet 34 °F
Umor 20%
Rainfall 0.00 in
Snow Depth Not available.
UV 1 out of 12
Pollen 6.10 out of 12
Air Quality Not available.
Flu Activity Not available.
METAR KWYS 240150Z AUTO 17008KT 10SM CLR 26/01 A3018 RMK AO2

More Conditions Fewer Conditions

Pressio 30.18 in
Visibilitas 10.0 milia passuum
Clouds Serena
Frigus in quo Ros apparet 34 °F
Umor 20%
Rainfall 0.00 in
Snow Depth Not available.
UV 1 out of 12
Pollen 6.10 out of 12
Air Quality Not available.
Flu Activity Not available.
METAR KWYS 240150Z AUTO 17008KT 10SM CLR 26/01 A3018 RMK AO2

More Conditions Fewer Conditions

10-Day Weather Forecast

Almanac

Astronomy

Jul. 23, 2014 Rise Set
Actual Time 5:57 AM MDT 8:58 PM MDT
Civil Twilight 5:23 AM MDT 9:32 PM MDT
Nautical Twilight 4:38 AM MDT 10:16 PM MDT
Astronomical Twilight 3:45 AM MDT 11:09 PM MDT
Moon 3:20 AM MDT (7/23) 6:28 PM MDT (7/23)
Length Of Visible Light 16h 09m
Length of Day
15h 00m
Tomorrow will be 2m 4s shorter.
Waning Crescent, 7% of the Moon is Illuminated
Hodie
Waning Crescent
Jul 26
New
Aug 3
First Quarter
Aug 10
Full
Aug 17
Last Quarter

Today's Extremes

State Highs State Lows

Community

WunderPhotos

Upload Photos

1,736,843 photos uploaded!

Nearby

Snow Depth

Station Depth Elevation
Burroughs Creek 0 in 8750 ft
Phillips Bench 0 in 8200 ft
Blind Bull Summit 0 in 8900 ft
Willow Creek 0 in 8450 ft
Big Sandy Opening 0 in 9080 ft

Earthquake Activity

City Distance Mag. Time & Date
Driggs, Idaho 78 milia passuum 3.1 5:31 PM MDT
2014-07-17
Minimum magnitude displayed is 2.5.

Coastal Water Temperatures

Locus Calor
No Stations Reporting

Nearby Weather Stations

Station Location Temp Index Caloris Frigus in quo Ros apparet Umor Ventus Precip. Elev Renovata Type
RAWS GREBE WY, Yellowstone National Park, WY 76 °F 76 °F 32 °F 20% Inter Austrum et Zephyrum  -  8 mph 0.00 in / hr 7899 ft 6:49 PM MDT MADIS
HADS SODA BUTTE CREEK AT YELLOWSTONE WY, Cooke City, MT 77 °F 75 °F - - Aquilo  -  - 0.00 in / hr 7359 ft 6:45 PM MDT MADIS
HADS TOWER FALLS RANGER STATION AT YE WY, Yellowstone National Park, WY 83 °F 80 °F 34 °F 17% Inter Aquilonem et Zephyrus  -  2 mph 0.00 in / hr 6266 ft 7:15 PM MDT MADIS
HADS MAMMOTH AT YELLOWSTONE NP WY, Yellowstone National Park, WY 84 °F 81 °F 26 °F 12% Auster  -  7 mph 0.00 in / hr 6298 ft 7:15 PM MDT MADIS

Show More Stations Show Fewer Stations